sensor_id;sensor_type;location;lat;lon;timestamp;P1;durP1;ratioP1;P2;durP2;ratioP2
75645;SDS011;64237;52.438;13.240;2023-06-19T00:01:17;14.50;;;7.93;;
75645;SDS011;64237;52.438;13.240;2023-06-19T00:03:45;11.82;;;7.55;;
75645;SDS011;64237;52.438;13.240;2023-06-19T00:06:10;12.55;;;7.85;;
75645;SDS011;64237;52.438;13.240;2023-06-19T00:08:37;12.02;;;7.25;;
75645;SDS011;64237;52.438;13.240;2023-06-19T00:11:03;11.70;;;7.63;;
75645;SDS011;64237;52.438;13.240;2023-06-19T00:13:28;11.60;;;7.72;;
75645;SDS011;64237;52.438;13.240;2023-06-19T00:15:56;13.13;;;8.00;;
75645;SDS011;64237;52.438;13.240;2023-06-19T00:18:28;11.98;;;7.80;;
75645;SDS011;64237;52.438;13.240;2023-06-19T00:20:53;12.20;;;7.95;;
75645;SDS011;64237;52.438;13.240;2023-06-19T00:23:27;12.40;;;7.72;;
75645;SDS011;64237;52.438;13.240;2023-06-19T00:25:53;11.55;;;7.47;;
75645;SDS011;64237;52.438;13.240;2023-06-19T00:28:18;12.30;;;7.67;;
75645;SDS011;64237;52.438;13.240;2023-06-19T00:30:45;12.30;;;7.88;;
75645;SDS011;64237;52.438;13.240;2023-06-19T00:33:10;13.43;;;8.13;;
75645;SDS011;64237;52.438;13.240;2023-06-19T00:35:38;11.57;;;7.40;;
75645;SDS011;64237;52.438;13.240;2023-06-19T00:38:05;12.77;;;8.50;;
75645;SDS011;64237;52.438;13.240;2023-06-19T00:40:39;11.70;;;7.75;;
75645;SDS011;64237;52.438;13.240;2023-06-19T00:43:05;13.57;;;8.50;;
75645;SDS011;64237;52.438;13.240;2023-06-19T00:45:31;13.25;;;7.80;;
75645;SDS011;64237;52.438;13.240;2023-06-19T00:48:03;11.88;;;7.68;;
75645;SDS011;64237;52.438;13.240;2023-06-19T00:50:29;11.30;;;7.88;;
75645;SDS011;64237;52.438;13.240;2023-06-19T00:52:55;10.82;;;7.88;;
75645;SDS011;64237;52.438;13.240;2023-06-19T00:55:20;13.20;;;8.30;;
75645;SDS011;64237;52.438;13.240;2023-06-19T00:57:46;15.48;;;7.90;;
75645;SDS011;64237;52.438;13.240;2023-06-19T01:00:15;12.85;;;8.02;;
75645;SDS011;64237;52.438;13.240;2023-06-19T01:02:41;12.88;;;7.90;;
75645;SDS011;64237;52.438;13.240;2023-06-19T01:05:06;12.68;;;7.97;;
75645;SDS011;64237;52.438;13.240;2023-06-19T01:10:02;14.60;;;8.57;;
75645;SDS011;64237;52.438;13.240;2023-06-19T01:12:34;15.18;;;8.02;;
75645;SDS011;64237;52.438;13.240;2023-06-19T01:15:03;12.00;;;7.97;;
75645;SDS011;64237;52.438;13.240;2023-06-19T01:17:30;12.93;;;8.02;;
75645;SDS011;64237;52.438;13.240;2023-06-19T01:19:59;12.73;;;8.30;;
75645;SDS011;64237;52.438;13.240;2023-06-19T01:22:28;12.02;;;8.00;;
75645;SDS011;64237;52.438;13.240;2023-06-19T01:24:56;11.05;;;7.82;;
75645;SDS011;64237;52.438;13.240;2023-06-19T01:27:25;12.93;;;8.32;;
75645;SDS011;64237;52.438;13.240;2023-06-19T01:29:54;11.45;;;7.88;;
75645;SDS011;64237;52.438;13.240;2023-06-19T01:35:01;12.30;;;8.23;;
75645;SDS011;64237;52.438;13.240;2023-06-19T01:37:29;14.90;;;8.98;;
75645;SDS011;64237;52.438;13.240;2023-06-19T01:39:58;11.85;;;8.48;;
75645;SDS011;64237;52.438;13.240;2023-06-19T01:42:25;14.15;;;8.30;;
75645;SDS011;64237;52.438;13.240;2023-06-19T01:44:52;12.80;;;8.38;;
75645;SDS011;64237;52.438;13.240;2023-06-19T01:47:18;12.77;;;8.15;;
75645;SDS011;64237;52.438;13.240;2023-06-19T01:49:45;13.23;;;8.32;;
75645;SDS011;64237;52.438;13.240;2023-06-19T01:52:11;12.10;;;7.97;;
75645;SDS011;64237;52.438;13.240;2023-06-19T01:54:38;12.18;;;8.18;;
75645;SDS011;64237;52.438;13.240;2023-06-19T01:57:03;12.13;;;8.05;;
75645;SDS011;64237;52.438;13.240;2023-06-19T01:59:29;12.10;;;7.97;;
75645;SDS011;64237;52.438;13.240;2023-06-19T02:02:00;13.40;;;9.10;;
75645;SDS011;64237;52.438;13.240;2023-06-19T02:04:25;13.70;;;8.75;;
75645;SDS011;64237;52.438;13.240;2023-06-19T02:06:51;12.32;;;8.80;;
75645;SDS011;64237;52.438;13.240;2023-06-19T02:09:19;13.20;;;8.27;;
75645;SDS011;64237;52.438;13.240;2023-06-19T02:11:45;16.27;;;8.68;;
75645;SDS011;64237;52.438;13.240;2023-06-19T02:14:10;11.60;;;7.73;;
75645;SDS011;64237;52.438;13.240;2023-06-19T02:16:36;13.10;;;8.20;;
75645;SDS011;64237;52.438;13.240;2023-06-19T02:19:01;11.27;;;8.18;;
75645;SDS011;64237;52.438;13.240;2023-06-19T02:21:27;14.48;;;8.60;;
75645;SDS011;64237;52.438;13.240;2023-06-19T02:23:53;12.25;;;8.27;;
75645;SDS011;64237;52.438;13.240;2023-06-19T02:26:19;13.77;;;9.20;;
75645;SDS011;64237;52.438;13.240;2023-06-19T02:28:47;13.13;;;8.52;;
75645;SDS011;64237;52.438;13.240;2023-06-19T02:31:12;11.52;;;8.32;;
75645;SDS011;64237;52.438;13.240;2023-06-19T02:33:38;12.77;;;8.57;;
75645;SDS011;64237;52.438;13.240;2023-06-19T02:36:03;13.23;;;8.57;;
75645;SDS011;64237;52.438;13.240;2023-06-19T02:38:29;14.45;;;8.68;;
75645;SDS011;64237;52.438;13.240;2023-06-19T02:40:55;13.10;;;8.35;;
75645;SDS011;64237;52.438;13.240;2023-06-19T02:43:22;12.55;;;8.80;;
75645;SDS011;64237;52.438;13.240;2023-06-19T02:45:48;13.63;;;9.02;;
75645;SDS011;64237;52.438;13.240;2023-06-19T02:48:13;12.88;;;8.18;;
75645;SDS011;64237;52.438;13.240;2023-06-19T02:50:39;12.52;;;8.40;;
75645;SDS011;64237;52.438;13.240;2023-06-19T02:53:04;12.17;;;8.53;;
75645;SDS011;64237;52.438;13.240;2023-06-19T02:55:32;12.60;;;8.77;;
75645;SDS011;64237;52.438;13.240;2023-06-19T02:58:06;12.45;;;8.70;;
75645;SDS011;64237;52.438;13.240;2023-06-19T03:00:32;13.10;;;8.90;;
75645;SDS011;64237;52.438;13.240;2023-06-19T03:02:57;15.75;;;8.90;;
75645;SDS011;64237;52.438;13.240;2023-06-19T03:05:24;13.27;;;8.02;;
75645;SDS011;64237;52.438;13.240;2023-06-19T03:07:49;15.02;;;8.68;;
75645;SDS011;64237;52.438;13.240;2023-06-19T03:10:14;13.63;;;8.40;;
75645;SDS011;64237;52.438;13.240;2023-06-19T03:12:40;14.00;;;9.25;;
75645;SDS011;64237;52.438;13.240;2023-06-19T03:15:05;16.17;;;9.48;;
75645;SDS011;64237;52.438;13.240;2023-06-19T03:17:31;14.55;;;8.82;;
75645;SDS011;64237;52.438;13.240;2023-06-19T03:19:56;13.98;;;9.02;;
75645;SDS011;64237;52.438;13.240;2023-06-19T03:22:22;13.45;;;9.15;;
75645;SDS011;64237;52.438;13.240;2023-06-19T03:24:47;12.10;;;8.25;;
75645;SDS011;64237;52.438;13.240;2023-06-19T03:27:12;13.93;;;9.00;;
75645;SDS011;64237;52.438;13.240;2023-06-19T03:29:41;13.60;;;9.57;;
75645;SDS011;64237;52.438;13.240;2023-06-19T03:32:06;12.80;;;9.02;;
75645;SDS011;64237;52.438;13.240;2023-06-19T03:34:34;13.23;;;8.73;;
75645;SDS011;64237;52.438;13.240;2023-06-19T03:37:00;12.57;;;9.10;;
75645;SDS011;64237;52.438;13.240;2023-06-19T03:39:28;12.30;;;8.35;;
75645;SDS011;64237;52.438;13.240;2023-06-19T03:41:53;13.10;;;9.20;;
75645;SDS011;64237;52.438;13.240;2023-06-19T03:44:19;13.53;;;9.20;;
75645;SDS011;64237;52.438;13.240;2023-06-19T03:46:44;11.43;;;8.23;;
75645;SDS011;64237;52.438;13.240;2023-06-19T03:49:09;11.75;;;8.13;;
75645;SDS011;64237;52.438;13.240;2023-06-19T03:51:35;14.48;;;8.63;;
75645;SDS011;64237;52.438;13.240;2023-06-19T03:54:03;13.25;;;8.95;;
75645;SDS011;64237;52.438;13.240;2023-06-19T03:56:29;11.25;;;7.82;;
75645;SDS011;64237;52.438;13.240;2023-06-19T03:58:54;13.00;;;8.73;;
75645;SDS011;64237;52.438;13.240;2023-06-19T04:01:19;12.55;;;9.07;;
75645;SDS011;64237;52.438;13.240;2023-06-19T04:03:45;13.00;;;9.17;;
75645;SDS011;64237;52.438;13.240;2023-06-19T04:06:10;17.03;;;9.17;;
75645;SDS011;64237;52.438;13.240;2023-06-19T04:11:11;15.52;;;9.45;;
75645;SDS011;64237;52.438;13.240;2023-06-19T04:13:36;13.85;;;9.20;;
75645;SDS011;64237;52.438;13.240;2023-06-19T04:16:01;12.53;;;9.60;;
75645;SDS011;64237;52.438;13.240;2023-06-19T04:18:27;12.98;;;9.43;;
75645;SDS011;64237;52.438;13.240;2023-06-19T04:20:53;12.65;;;9.30;;
75645;SDS011;64237;52.438;13.240;2023-06-19T04:23:18;12.55;;;9.40;;
75645;SDS011;64237;52.438;13.240;2023-06-19T04:25:44;16.50;;;8.73;;
75645;SDS011;64237;52.438;13.240;2023-06-19T04:28:09;17.85;;;10.15;;
75645;SDS011;64237;52.438;13.240;2023-06-19T04:30:34;17.48;;;9.50;;
75645;SDS011;64237;52.438;13.240;2023-06-19T04:33:00;14.60;;;9.60;;
75645;SDS011;64237;52.438;13.240;2023-06-19T04:35:25;13.73;;;8.65;;
75645;SDS011;64237;52.438;13.240;2023-06-19T04:37:51;12.50;;;9.20;;
75645;SDS011;64237;52.438;13.240;2023-06-19T04:40:18;11.75;;;8.55;;
75645;SDS011;64237;52.438;13.240;2023-06-19T04:42:44;12.98;;;8.93;;
75645;SDS011;64237;52.438;13.240;2023-06-19T04:45:09;15.10;;;8.32;;
75645;SDS011;64237;52.438;13.240;2023-06-19T04:47:35;14.07;;;9.18;;
75645;SDS011;64237;52.438;13.240;2023-06-19T04:50:01;12.00;;;8.90;;
75645;SDS011;64237;52.438;13.240;2023-06-19T04:52:26;12.07;;;8.85;;
75645;SDS011;64237;52.438;13.240;2023-06-19T04:54:52;11.50;;;8.77;;
75645;SDS011;64237;52.438;13.240;2023-06-19T04:57:17;12.32;;;6.93;;
75645;SDS011;64237;52.438;13.240;2023-06-19T04:59:43;11.07;;;7.40;;
75645;SDS011;64237;52.438;13.240;2023-06-19T05:02:11;14.02;;;8.23;;
75645;SDS011;64237;52.438;13.240;2023-06-19T05:04:36;11.95;;;7.82;;
75645;SDS011;64237;52.438;13.240;2023-06-19T05:07:02;12.75;;;8.85;;
75645;SDS011;64237;52.438;13.240;2023-06-19T05:09:28;12.43;;;9.23;;
75645;SDS011;64237;52.438;13.240;2023-06-19T05:11:53;13.07;;;9.70;;
75645;SDS011;64237;52.438;13.240;2023-06-19T05:14:19;12.10;;;9.25;;
75645;SDS011;64237;52.438;13.240;2023-06-19T05:16:45;11.85;;;8.52;;
75645;SDS011;64237;52.438;13.240;2023-06-19T05:19:10;12.65;;;8.85;;
75645;SDS011;64237;52.438;13.240;2023-06-19T05:21:35;13.75;;;9.20;;
75645;SDS011;64237;52.438;13.240;2023-06-19T05:24:01;13.40;;;9.13;;
75645;SDS011;64237;52.438;13.240;2023-06-19T05:26:26;11.90;;;8.77;;
75645;SDS011;64237;52.438;13.240;2023-06-19T05:28:52;14.10;;;9.43;;
75645;SDS011;64237;52.438;13.240;2023-06-19T05:31:18;12.07;;;8.73;;
75645;SDS011;64237;52.438;13.240;2023-06-19T05:33:43;12.52;;;9.52;;
75645;SDS011;64237;52.438;13.240;2023-06-19T05:36:09;12.55;;;8.90;;
75645;SDS011;64237;52.438;13.240;2023-06-19T05:38:35;12.05;;;8.85;;
75645;SDS011;64237;52.438;13.240;2023-06-19T05:41:01;18.02;;;9.65;;
75645;SDS011;64237;52.438;13.240;2023-06-19T05:43:27;13.35;;;9.77;;
75645;SDS011;64237;52.438;13.240;2023-06-19T05:45:53;13.70;;;9.25;;
75645;SDS011;64237;52.438;13.240;2023-06-19T05:48:20;15.52;;;9.50;;
75645;SDS011;64237;52.438;13.240;2023-06-19T05:50:46;13.75;;;8.90;;
75645;SDS011;64237;52.438;13.240;2023-06-19T05:53:11;11.30;;;8.30;;
75645;SDS011;64237;52.438;13.240;2023-06-19T05:55:37;13.27;;;8.68;;
75645;SDS011;64237;52.438;13.240;2023-06-19T05:58:02;14.23;;;8.70;;
75645;SDS011;64237;52.438;13.240;2023-06-19T06:00:29;15.52;;;9.00;;
75645;SDS011;64237;52.438;13.240;2023-06-19T06:02:57;13.75;;;9.30;;
75645;SDS011;64237;52.438;13.240;2023-06-19T06:05:25;12.10;;;8.30;;
75645;SDS011;64237;52.438;13.240;2023-06-19T06:07:51;12.95;;;9.43;;
75645;SDS011;64237;52.438;13.240;2023-06-19T06:10:17;12.35;;;8.43;;
75645;SDS011;64237;52.438;13.240;2023-06-19T06:12:44;12.73;;;9.13;;
75645;SDS011;64237;52.438;13.240;2023-06-19T06:15:09;15.90;;;9.52;;
75645;SDS011;64237;52.438;13.240;2023-06-19T06:17:35;14.07;;;9.20;;
75645;SDS011;64237;52.438;13.240;2023-06-19T06:20:00;12.10;;;8.82;;
75645;SDS011;64237;52.438;13.240;2023-06-19T06:22:26;14.35;;;9.35;;
75645;SDS011;64237;52.438;13.240;2023-06-19T06:24:51;13.97;;;9.20;;
75645;SDS011;64237;52.438;13.240;2023-06-19T06:27:18;12.32;;;8.75;;
75645;SDS011;64237;52.438;13.240;2023-06-19T06:29:43;13.90;;;8.52;;
75645;SDS011;64237;52.438;13.240;2023-06-19T06:32:09;14.90;;;8.60;;
75645;SDS011;64237;52.438;13.240;2023-06-19T06:34:34;14.55;;;9.10;;
75645;SDS011;64237;52.438;13.240;2023-06-19T06:37:00;13.73;;;8.55;;
75645;SDS011;64237;52.438;13.240;2023-06-19T06:39:25;13.07;;;8.73;;
75645;SDS011;64237;52.438;13.240;2023-06-19T06:41:51;12.95;;;9.18;;
75645;SDS011;64237;52.438;13.240;2023-06-19T06:44:17;13.05;;;8.70;;
75645;SDS011;64237;52.438;13.240;2023-06-19T06:46:42;12.40;;;8.82;;
75645;SDS011;64237;52.438;13.240;2023-06-19T06:49:08;12.43;;;8.70;;
75645;SDS011;64237;52.438;13.240;2023-06-19T06:51:33;12.10;;;8.98;;
75645;SDS011;64237;52.438;13.240;2023-06-19T06:53:58;12.93;;;8.80;;
75645;SDS011;64237;52.438;13.240;2023-06-19T06:56:24;12.38;;;8.23;;
75645;SDS011;64237;52.438;13.240;2023-06-19T06:58:49;11.00;;;7.70;;
75645;SDS011;64237;52.438;13.240;2023-06-19T07:01:14;12.95;;;8.63;;
75645;SDS011;64237;52.438;13.240;2023-06-19T07:03:40;11.70;;;8.52;;
75645;SDS011;64237;52.438;13.240;2023-06-19T07:06:05;12.88;;;8.35;;
75645;SDS011;64237;52.438;13.240;2023-06-19T07:08:32;11.70;;;8.63;;
75645;SDS011;64237;52.438;13.240;2023-06-19T07:10:58;10.98;;;8.60;;
75645;SDS011;64237;52.438;13.240;2023-06-19T07:13:24;12.18;;;8.25;;
75645;SDS011;64237;52.438;13.240;2023-06-19T07:15:49;13.77;;;8.30;;
75645;SDS011;64237;52.438;13.240;2023-06-19T07:18:15;11.98;;;8.27;;
75645;SDS011;64237;52.438;13.240;2023-06-19T07:20:40;11.18;;;8.23;;
75645;SDS011;64237;52.438;13.240;2023-06-19T07:23:06;12.30;;;8.57;;
75645;SDS011;64237;52.438;13.240;2023-06-19T07:25:31;12.60;;;8.68;;
75645;SDS011;64237;52.438;13.240;2023-06-19T07:27:59;12.25;;;8.38;;
75645;SDS011;64237;52.438;13.240;2023-06-19T07:30:25;14.43;;;8.25;;
75645;SDS011;64237;52.438;13.240;2023-06-19T07:32:50;11.77;;;8.30;;
75645;SDS011;64237;52.438;13.240;2023-06-19T07:35:16;11.32;;;8.20;;
75645;SDS011;64237;52.438;13.240;2023-06-19T07:37:41;12.40;;;8.35;;
75645;SDS011;64237;52.438;13.240;2023-06-19T07:40:07;14.60;;;8.85;;
75645;SDS011;64237;52.438;13.240;2023-06-19T07:42:33;15.07;;;7.72;;
75645;SDS011;64237;52.438;13.240;2023-06-19T07:44:58;13.50;;;8.30;;
75645;SDS011;64237;52.438;13.240;2023-06-19T07:47:23;13.35;;;8.82;;
75645;SDS011;64237;52.438;13.240;2023-06-19T07:49:50;12.27;;;8.55;;
75645;SDS011;64237;52.438;13.240;2023-06-19T07:52:16;12.40;;;8.53;;
75645;SDS011;64237;52.438;13.240;2023-06-19T07:54:49;13.77;;;9.05;;
75645;SDS011;64237;52.438;13.240;2023-06-19T07:57:16;11.65;;;8.00;;
75645;SDS011;64237;52.438;13.240;2023-06-19T07:59:41;13.20;;;8.55;;
75645;SDS011;64237;52.438;13.240;2023-06-19T08:02:07;12.75;;;8.57;;
75645;SDS011;64237;52.438;13.240;2023-06-19T08:04:32;12.00;;;8.67;;
75645;SDS011;64237;52.438;13.240;2023-06-19T08:06:57;11.80;;;8.38;;
75645;SDS011;64237;52.438;13.240;2023-06-19T08:09:23;14.68;;;8.65;;
75645;SDS011;64237;52.438;13.240;2023-06-19T08:11:48;11.70;;;8.65;;
75645;SDS011;64237;52.438;13.240;2023-06-19T08:14:13;12.83;;;8.33;;
75645;SDS011;64237;52.438;13.240;2023-06-19T08:16:39;12.43;;;7.93;;
75645;SDS011;64237;52.438;13.240;2023-06-19T08:19:04;12.60;;;8.40;;
75645;SDS011;64237;52.438;13.240;2023-06-19T08:21:29;11.40;;;8.57;;
75645;SDS011;64237;52.438;13.240;2023-06-19T08:23:55;11.98;;;8.05;;
75645;SDS011;64237;52.438;13.240;2023-06-19T08:26:20;12.63;;;8.35;;
75645;SDS011;64237;52.438;13.240;2023-06-19T08:28:46;12.00;;;8.18;;
75645;SDS011;64237;52.438;13.240;2023-06-19T08:31:11;11.57;;;8.63;;
75645;SDS011;64237;52.438;13.240;2023-06-19T08:33:36;12.23;;;8.68;;
75645;SDS011;64237;52.438;13.240;2023-06-19T08:36:02;12.45;;;9.05;;
75645;SDS011;64237;52.438;13.240;2023-06-19T08:38:27;12.02;;;8.70;;
75645;SDS011;64237;52.438;13.240;2023-06-19T08:40:53;12.83;;;8.70;;
75645;SDS011;64237;52.438;13.240;2023-06-19T08:43:20;13.20;;;8.85;;
75645;SDS011;64237;52.438;13.240;2023-06-19T08:48:44;12.77;;;8.95;;
75645;SDS011;64237;52.438;13.240;2023-06-19T08:51:10;13.00;;;8.55;;
75645;SDS011;64237;52.438;13.240;2023-06-19T08:53:43;12.23;;;8.20;;
75645;SDS011;64237;52.438;13.240;2023-06-19T08:56:10;14.02;;;8.80;;
75645;SDS011;64237;52.438;13.240;2023-06-19T08:58:35;14.98;;;8.18;;
75645;SDS011;64237;52.438;13.240;2023-06-19T09:01:02;12.90;;;8.93;;
75645;SDS011;64237;52.438;13.240;2023-06-19T09:03:28;13.90;;;9.15;;
75645;SDS011;64237;52.438;13.240;2023-06-19T09:05:53;13.30;;;9.05;;
75645;SDS011;64237;52.438;13.240;2023-06-19T09:08:19;14.80;;;9.55;;
75645;SDS011;64237;52.438;13.240;2023-06-19T09:13:43;12.35;;;9.25;;
75645;SDS011;64237;52.438;13.240;2023-06-19T09:16:08;11.80;;;9.13;;
75645;SDS011;64237;52.438;13.240;2023-06-19T09:18:46;14.40;;;8.63;;
75645;SDS011;64237;52.438;13.240;2023-06-19T09:21:16;13.77;;;9.77;;
75645;SDS011;64237;52.438;13.240;2023-06-19T09:23:43;13.73;;;8.73;;
75645;SDS011;64237;52.438;13.240;2023-06-19T09:26:09;12.98;;;8.73;;
75645;SDS011;64237;52.438;13.240;2023-06-19T09:28:39;13.25;;;9.60;;
75645;SDS011;64237;52.438;13.240;2023-06-19T09:31:06;12.40;;;9.15;;
75645;SDS011;64237;52.438;13.240;2023-06-19T09:33:32;13.75;;;9.35;;
75645;SDS011;64237;52.438;13.240;2023-06-19T09:35:59;14.05;;;9.25;;
75645;SDS011;64237;52.438;13.240;2023-06-19T09:38:27;13.57;;;9.60;;
75645;SDS011;64237;52.438;13.240;2023-06-19T09:40:53;16.38;;;9.85;;
75645;SDS011;64237;52.438;13.240;2023-06-19T09:43:25;14.73;;;10.15;;
75645;SDS011;64237;52.438;13.240;2023-06-19T09:46:04;13.25;;;10.02;;
75645;SDS011;64237;52.438;13.240;2023-06-19T09:48:31;15.10;;;10.20;;
75645;SDS011;64237;52.438;13.240;2023-06-19T09:51:01;12.63;;;9.23;;
75645;SDS011;64237;52.438;13.240;2023-06-19T09:53:33;13.70;;;10.60;;
75645;SDS011;64237;52.438;13.240;2023-06-19T09:55:59;15.27;;;9.52;;
75645;SDS011;64237;52.438;13.240;2023-06-19T09:58:24;14.47;;;9.73;;
75645;SDS011;64237;52.438;13.240;2023-06-19T10:00:51;12.38;;;9.43;;
75645;SDS011;64237;52.438;13.240;2023-06-19T10:03:17;15.98;;;9.55;;
75645;SDS011;64237;52.438;13.240;2023-06-19T10:05:42;17.52;;;10.05;;
75645;SDS011;64237;52.438;13.240;2023-06-19T10:08:07;13.60;;;9.38;;
75645;SDS011;64237;52.438;13.240;2023-06-19T10:10:33;12.75;;;10.02;;
75645;SDS011;64237;52.438;13.240;2023-06-19T10:13:11;17.00;;;10.55;;
75645;SDS011;64237;52.438;13.240;2023-06-19T10:15:40;18.48;;;9.88;;
75645;SDS011;64237;52.438;13.240;2023-06-19T10:18:16;14.13;;;9.65;;
75645;SDS011;64237;52.438;13.240;2023-06-19T10:20:43;13.80;;;9.30;;
75645;SDS011;64237;52.438;13.240;2023-06-19T10:23:16;14.27;;;9.75;;
75645;SDS011;64237;52.438;13.240;2023-06-19T10:25:58;14.70;;;10.10;;
75645;SDS011;64237;52.438;13.240;2023-06-19T10:31:04;12.80;;;9.23;;
75645;SDS011;64237;52.438;13.240;2023-06-19T10:33:34;14.90;;;9.93;;
75645;SDS011;64237;52.438;13.240;2023-06-19T10:36:14;13.43;;;9.18;;
75645;SDS011;64237;52.438;13.240;2023-06-19T10:38:41;14.20;;;9.70;;
75645;SDS011;64237;52.438;13.240;2023-06-19T10:41:14;15.38;;;9.30;;
75645;SDS011;64237;52.438;13.240;2023-06-19T10:43:40;13.23;;;9.77;;
75645;SDS011;64237;52.438;13.240;2023-06-19T10:46:05;14.10;;;9.02;;
75645;SDS011;64237;52.438;13.240;2023-06-19T10:48:30;10.90;;;8.60;;
75645;SDS011;64237;52.438;13.240;2023-06-19T10:50:56;13.07;;;9.75;;
75645;SDS011;64237;52.438;13.240;2023-06-19T10:55:56;13.20;;;9.10;;
75645;SDS011;64237;52.438;13.240;2023-06-19T10:58:23;15.32;;;9.40;;
75645;SDS011;64237;52.438;13.240;2023-06-19T11:00:49;13.07;;;8.70;;
75645;SDS011;64237;52.438;13.240;2023-06-19T11:03:14;11.07;;;8.57;;
75645;SDS011;64237;52.438;13.240;2023-06-19T11:05:43;14.90;;;9.10;;
75645;SDS011;64237;52.438;13.240;2023-06-19T11:08:09;11.20;;;8.27;;
75645;SDS011;64237;52.438;13.240;2023-06-19T11:10:35;11.52;;;8.93;;
75645;SDS011;64237;52.438;13.240;2023-06-19T11:13:00;11.45;;;9.50;;
75645;SDS011;64237;52.438;13.240;2023-06-19T11:15:33;14.98;;;8.68;;
75645;SDS011;64237;52.438;13.240;2023-06-19T11:17:59;12.15;;;8.35;;
75645;SDS011;64237;52.438;13.240;2023-06-19T11:20:26;13.13;;;8.85;;
75645;SDS011;64237;52.438;13.240;2023-06-19T11:22:57;12.35;;;8.73;;
75645;SDS011;64237;52.438;13.240;2023-06-19T11:25:36;15.10;;;8.80;;
75645;SDS011;64237;52.438;13.240;2023-06-19T11:28:03;12.43;;;8.68;;
75645;SDS011;64237;52.438;13.240;2023-06-19T11:30:30;13.60;;;9.07;;
75645;SDS011;64237;52.438;13.240;2023-06-19T11:32:56;12.05;;;8.68;;
75645;SDS011;64237;52.438;13.240;2023-06-19T11:35:22;12.05;;;8.25;;
75645;SDS011;64237;52.438;13.240;2023-06-19T11:37:47;12.63;;;8.23;;
75645;SDS011;64237;52.438;13.240;2023-06-19T11:40:13;11.82;;;8.45;;
75645;SDS011;64237;52.438;13.240;2023-06-19T11:42:44;11.38;;;8.15;;
75645;SDS011;64237;52.438;13.240;2023-06-19T11:45:11;12.05;;;8.40;;
75645;SDS011;64237;52.438;13.240;2023-06-19T11:47:36;11.00;;;8.07;;
75645;SDS011;64237;52.438;13.240;2023-06-19T11:50:03;12.68;;;8.55;;
75645;SDS011;64237;52.438;13.240;2023-06-19T11:52:30;10.93;;;8.48;;
75645;SDS011;64237;52.438;13.240;2023-06-19T11:54:56;12.15;;;9.02;;
75645;SDS011;64237;52.438;13.240;2023-06-19T11:57:21;11.38;;;8.07;;
75645;SDS011;64237;52.438;13.240;2023-06-19T11:59:46;11.77;;;8.05;;
75645;SDS011;64237;52.438;13.240;2023-06-19T12:02:12;12.00;;;8.27;;
75645;SDS011;64237;52.438;13.240;2023-06-19T12:04:38;11.77;;;8.40;;
75645;SDS011;64237;52.438;13.240;2023-06-19T12:07:03;11.63;;;8.32;;
75645;SDS011;64237;52.438;13.240;2023-06-19T12:09:29;13.32;;;8.27;;
75645;SDS011;64237;52.438;13.240;2023-06-19T12:11:55;10.65;;;8.20;;
75645;SDS011;64237;52.438;13.240;2023-06-19T12:14:21;15.20;;;8.45;;
75645;SDS011;64237;52.438;13.240;2023-06-19T12:16:46;11.10;;;7.75;;
75645;SDS011;64237;52.438;13.240;2023-06-19T12:19:12;11.77;;;8.07;;
75645;SDS011;64237;52.438;13.240;2023-06-19T12:21:37;12.15;;;8.57;;
75645;SDS011;64237;52.438;13.240;2023-06-19T12:24:03;12.40;;;8.55;;
75645;SDS011;64237;52.438;13.240;2023-06-19T12:26:28;11.65;;;8.30;;
75645;SDS011;64237;52.438;13.240;2023-06-19T12:28:54;11.82;;;8.30;;
75645;SDS011;64237;52.438;13.240;2023-06-19T12:31:19;13.25;;;8.18;;
75645;SDS011;64237;52.438;13.240;2023-06-19T12:33:44;11.33;;;7.93;;
75645;SDS011;64237;52.438;13.240;2023-06-19T12:36:12;13.80;;;7.82;;
75645;SDS011;64237;52.438;13.240;2023-06-19T12:38:38;12.48;;;8.02;;
75645;SDS011;64237;52.438;13.240;2023-06-19T12:41:06;11.82;;;7.53;;
75645;SDS011;64237;52.438;13.240;2023-06-19T12:43:32;9.85;;;6.80;;
75645;SDS011;64237;52.438;13.240;2023-06-19T12:45:58;12.68;;;7.07;;
75645;SDS011;64237;52.438;13.240;2023-06-19T12:48:27;10.68;;;7.03;;
75645;SDS011;64237;52.438;13.240;2023-06-19T12:50:52;11.38;;;7.47;;
75645;SDS011;64237;52.438;13.240;2023-06-19T12:53:18;10.60;;;7.30;;
75645;SDS011;64237;52.438;13.240;2023-06-19T12:55:44;9.88;;;7.20;;
75645;SDS011;64237;52.438;13.240;2023-06-19T12:58:09;11.90;;;7.43;;
75645;SDS011;64237;52.438;13.240;2023-06-19T13:00:36;10.50;;;7.90;;
75645;SDS011;64237;52.438;13.240;2023-06-19T13:03:02;10.63;;;7.57;;
75645;SDS011;64237;52.438;13.240;2023-06-19T13:05:27;10.40;;;7.28;;
75645;SDS011;64237;52.438;13.240;2023-06-19T13:07:53;11.38;;;8.15;;
75645;SDS011;64237;52.438;13.240;2023-06-19T13:10:18;13.00;;;7.85;;
75645;SDS011;64237;52.438;13.240;2023-06-19T13:12:43;14.52;;;7.78;;
75645;SDS011;64237;52.438;13.240;2023-06-19T13:15:09;11.20;;;7.72;;
75645;SDS011;64237;52.438;13.240;2023-06-19T13:17:34;13.25;;;7.80;;
75645;SDS011;64237;52.438;13.240;2023-06-19T13:20:00;10.90;;;7.07;;
75645;SDS011;64237;52.438;13.240;2023-06-19T13:22:25;13.57;;;7.47;;
75645;SDS011;64237;52.438;13.240;2023-06-19T13:24:51;12.52;;;7.72;;
75645;SDS011;64237;52.438;13.240;2023-06-19T13:27:17;11.30;;;7.95;;
75645;SDS011;64237;52.438;13.240;2023-06-19T13:29:42;10.38;;;7.05;;
75645;SDS011;64237;52.438;13.240;2023-06-19T13:32:08;10.30;;;7.40;;
75645;SDS011;64237;52.438;13.240;2023-06-19T13:34:33;11.48;;;6.82;;
75645;SDS011;64237;52.438;13.240;2023-06-19T13:36:59;10.05;;;7.07;;
75645;SDS011;64237;52.438;13.240;2023-06-19T13:39:24;11.50;;;7.32;;
75645;SDS011;64237;52.438;13.240;2023-06-19T13:41:50;9.85;;;7.43;;
75645;SDS011;64237;52.438;13.240;2023-06-19T13:44:15;13.00;;;7.28;;
75645;SDS011;64237;52.438;13.240;2023-06-19T13:46:40;9.98;;;7.35;;
75645;SDS011;64237;52.438;13.240;2023-06-19T13:49:07;11.30;;;7.25;;
75645;SDS011;64237;52.438;13.240;2023-06-19T13:51:32;11.77;;;7.65;;
75645;SDS011;64237;52.438;13.240;2023-06-19T13:53:58;10.60;;;7.30;;
75645;SDS011;64237;52.438;13.240;2023-06-19T13:56:24;10.68;;;6.38;;
75645;SDS011;64237;52.438;13.240;2023-06-19T13:58:49;9.13;;;6.55;;
75645;SDS011;64237;52.438;13.240;2023-06-19T14:01:15;10.85;;;7.10;;
75645;SDS011;64237;52.438;13.240;2023-06-19T14:03:40;9.88;;;7.30;;
75645;SDS011;64237;52.438;13.240;2023-06-19T14:06:06;8.98;;;6.93;;
75645;SDS011;64237;52.438;13.240;2023-06-19T14:08:32;10.63;;;6.47;;
75645;SDS011;64237;52.438;13.240;2023-06-19T14:10:58;10.65;;;6.68;;
75645;SDS011;64237;52.438;13.240;2023-06-19T14:13:23;10.65;;;7.00;;
75645;SDS011;64237;52.438;13.240;2023-06-19T14:15:49;12.60;;;6.97;;
75645;SDS011;64237;52.438;13.240;2023-06-19T14:18:14;10.57;;;7.13;;
75645;SDS011;64237;52.438;13.240;2023-06-19T14:20:40;9.15;;;6.70;;
75645;SDS011;64237;52.438;13.240;2023-06-19T14:23:06;12.75;;;7.75;;
75645;SDS011;64237;52.438;13.240;2023-06-19T14:25:32;10.93;;;7.60;;
75645;SDS011;64237;52.438;13.240;2023-06-19T14:27:58;11.38;;;8.20;;
75645;SDS011;64237;52.438;13.240;2023-06-19T14:30:23;13.88;;;7.95;;
75645;SDS011;64237;52.438;13.240;2023-06-19T14:32:49;10.77;;;7.47;;
75645;SDS011;64237;52.438;13.240;2023-06-19T14:35:14;11.55;;;8.60;;